Ridgeland, South Carolina
Current Conditions -  °F | °C
As of 7:10 PM on Sunday 23 Nov 2014 (Local Time) from KNBC Reporting Station
Thunderstorm Thunderstorm  
Wind Chill: 70°   Ceiling: 400
Heat Index: 70°   Visibility: 0.5mi
Dew Point: 69°   Wind: 10mph
Humidity: 97%   Direction: 230°SW
Pressure: 29.85"   Gusts: 21mph
Location:  32.48°N, 80.98°W
Report Text: KNBC 240010Z AUTO 23009G18KT 1/2SM +TSRA FG BKN004 BKN014 OVC029 21/21 A2985 RMK AO2 TSB2357 P0034 T02110206 $
Loading
Personal Weather Stations






























Interactive Weather Map New forecast layout! Learn more

10-Day Weather Forecast

Advertisements
Track Severe Weather on mobile